createdAt,value
2019-05-05T00:00:08.584Z,1007.93
2019-05-05T00:01:08.572Z,1007.89
2019-05-05T00:02:08.600Z,1007.92
2019-05-05T00:03:08.542Z,1007.91
2019-05-05T00:04:08.545Z,1007.92
2019-05-05T00:05:08.853Z,1007.93
2019-05-05T00:06:08.521Z,1007.95
2019-05-05T00:07:08.498Z,1007.94
2019-05-05T00:08:08.508Z,1007.93
2019-05-05T00:09:08.479Z,1007.99
2019-05-05T00:10:08.471Z,1008.01
2019-05-05T00:11:08.456Z,1007.99
2019-05-05T00:12:08.460Z,1007.99
2019-05-05T00:13:08.473Z,1008.02
2019-05-05T00:14:08.422Z,1008.06
2019-05-05T00:15:08.415Z,1008.07
2019-05-05T00:16:08.399Z,1008.07
2019-05-05T00:17:08.403Z,1008.07
2019-05-05T00:18:08.418Z,1008.08
2019-05-05T00:19:08.377Z,1008.13
2019-05-05T00:20:08.350Z,1008.09
2019-05-05T00:21:08.354Z,1008.14
2019-05-05T00:22:08.336Z,1008.16
2019-05-05T00:23:08.342Z,1008.18
2019-05-05T00:24:08.314Z,1008.17
2019-05-05T00:25:08.307Z,1008.19
2019-05-05T00:26:08.296Z,1008.18
2019-05-05T00:27:08.291Z,1008.19
2019-05-05T00:28:08.295Z,1008.16
2019-05-05T00:29:08.275Z,1008.19
2019-05-05T00:30:08.243Z,1008.21
2019-05-05T00:31:08.238Z,1008.20
2019-05-05T00:32:08.220Z,1008.24
2019-05-05T00:33:08.236Z,1008.19
2019-05-05T00:34:08.214Z,1008.21
2019-05-05T00:35:08.188Z,1008.24
2019-05-05T00:36:08.181Z,1008.22
2019-05-05T00:37:08.168Z,1008.22
2019-05-05T00:38:08.195Z,1008.20
2019-05-05T00:39:08.150Z,1008.21
2019-05-05T00:40:08.137Z,1008.24
2019-05-05T00:41:08.120Z,1008.22
2019-05-05T00:42:08.114Z,1008.23
2019-05-05T00:43:08.134Z,1008.22
2019-05-05T00:44:08.097Z,1008.21
2019-05-05T00:45:08.086Z,1008.23
2019-05-05T00:46:08.076Z,1008.22
2019-05-05T00:47:08.059Z,1008.21
2019-05-05T00:48:08.063Z,1008.25
2019-05-05T00:49:08.044Z,1008.23
2019-05-05T00:50:08.035Z,1008.21
2019-05-05T00:51:08.018Z,1008.23
2019-05-05T00:52:08.000Z,1008.18
2019-05-05T00:53:08.023Z,1008.24
2019-05-05T00:54:07.974Z,1008.22
2019-05-05T00:55:07.972Z,1008.22
2019-05-05T00:56:07.964Z,1008.23
2019-05-05T00:57:07.962Z,1008.18
2019-05-05T00:58:07.936Z,1008.19
2019-05-05T00:59:07.961Z,1008.23
2019-05-05T01:00:07.916Z,1008.20
2019-05-05T01:01:07.922Z,1008.25
2019-05-05T01:02:07.909Z,1008.23
2019-05-05T01:03:07.903Z,1008.24
2019-05-05T01:04:07.898Z,1008.24
2019-05-05T01:05:07.854Z,1008.29
2019-05-05T01:06:07.849Z,1008.28
2019-05-05T01:07:07.844Z,1008.31
2019-05-05T01:08:07.841Z,1008.27
2019-05-05T01:09:07.848Z,1008.27
2019-05-05T01:10:07.802Z,1008.30
2019-05-05T01:11:07.790Z,1008.33
2019-05-05T01:12:07.795Z,1008.33
2019-05-05T01:13:07.766Z,1008.31
2019-05-05T01:14:07.782Z,1008.30
2019-05-05T01:15:07.746Z,1008.36
2019-05-05T01:16:07.738Z,1008.33
2019-05-05T01:17:07.729Z,1008.34
2019-05-05T01:18:07.712Z,1008.37
2019-05-05T01:19:07.747Z,1008.46
2019-05-05T01:20:07.708Z,1008.40
2019-05-05T01:21:07.677Z,1008.42
2019-05-05T01:22:07.667Z,1008.44
2019-05-05T01:23:07.665Z,1008.48
2019-05-05T01:24:07.674Z,1008.54
2019-05-05T01:25:07.643Z,1008.49
2019-05-05T01:26:07.656Z,1008.54
2019-05-05T01:27:07.615Z,1008.62
2019-05-05T01:28:07.606Z,1008.61
2019-05-05T01:29:07.616Z,1008.62
2019-05-05T01:30:07.590Z,1008.70
2019-05-05T01:31:07.575Z,1008.72
2019-05-05T01:32:07.556Z,1008.74
2019-05-05T01:33:07.553Z,1008.79
2019-05-05T01:34:07.580Z,1008.79
2019-05-05T01:35:07.526Z,1008.84
2019-05-05T01:36:07.522Z,1008.83
2019-05-05T01:37:07.526Z,1008.85
2019-05-05T01:38:07.492Z,1008.87
2019-05-05T01:39:07.481Z,1008.87
2019-05-05T01:40:07.483Z,1008.91
2019-05-05T01:41:07.472Z,1008.94
2019-05-05T01:42:07.463Z,1008.95
2019-05-05T01:43:07.468Z,1009.00
2019-05-05T01:44:07.426Z,1009.01
2019-05-05T01:45:07.440Z,1009.04
2019-05-05T01:46:07.410Z,1009.09
2019-05-05T01:47:07.392Z,1009.08
2019-05-05T01:48:07.390Z,1009.05
2019-05-05T01:49:07.366Z,1009.10
2019-05-05T01:50:17.265Z,1009.14
2019-05-05T01:51:08.342Z,1009.14
2019-05-05T01:52:07.339Z,1009.22
2019-05-05T01:53:07.335Z,1009.19
2019-05-05T01:54:07.337Z,1009.18
2019-05-05T01:55:07.334Z,1009.22
2019-05-05T01:56:07.288Z,1009.24
2019-05-05T01:57:07.288Z,1009.22
2019-05-05T01:58:08.817Z,1009.26
2019-05-05T01:59:07.269Z,1009.24
2019-05-05T02:00:07.270Z,1009.23
2019-05-05T02:01:07.236Z,1009.23
2019-05-05T02:02:07.230Z,1009.25
2019-05-05T02:03:07.215Z,1009.23
2019-05-05T02:04:07.208Z,1009.30
2019-05-05T02:05:07.226Z,1009.25
2019-05-05T02:06:07.211Z,1009.29
2019-05-05T02:07:07.176Z,1009.27
2019-05-05T02:08:07.168Z,1009.27
2019-05-05T02:09:07.156Z,1009.28
2019-05-05T02:10:07.169Z,1009.28
2019-05-05T02:11:07.144Z,1009.32
2019-05-05T02:12:07.114Z,1009.36
2019-05-05T02:13:07.104Z,1009.33
2019-05-05T02:14:07.098Z,1009.35
2019-05-05T02:15:07.102Z,1009.36
2019-05-05T02:16:07.077Z,1009.32
2019-05-05T02:17:07.066Z,1009.38
2019-05-05T02:18:07.059Z,1009.35
2019-05-05T02:19:07.038Z,1009.40
2019-05-05T02:20:07.390Z,1009.41
2019-05-05T02:21:07.029Z,1009.40
2019-05-05T02:22:07.016Z,1009.45
2019-05-05T02:23:06.999Z,1009.41
2019-05-05T02:24:06.993Z,1009.44
2019-05-05T02:25:07.009Z,1009.42
2019-05-05T02:26:06.959Z,1009.45
2019-05-05T02:27:06.951Z,1009.41
2019-05-05T02:28:06.966Z,1009.43
2019-05-05T02:29:06.932Z,1009.41
2019-05-05T02:30:06.924Z,1009.45
2019-05-05T02:31:06.927Z,1009.46
2019-05-05T02:32:06.914Z,1009.49
2019-05-05T02:33:06.891Z,1009.46
2019-05-05T02:34:06.878Z,1009.46
2019-05-05T02:35:06.871Z,1009.46
2019-05-05T02:36:06.914Z,1009.48
2019-05-05T02:37:06.842Z,1009.52
2019-05-05T02:38:06.893Z,1009.48
2019-05-05T02:39:06.819Z,1009.48
2019-05-05T02:40:07.575Z,1009.45
2019-05-05T02:41:06.818Z,1009.52
2019-05-05T02:42:06.785Z,1009.52
2019-05-05T02:43:06.772Z,1009.52
2019-05-05T02:44:06.762Z,1009.54
2019-05-05T02:45:06.753Z,1009.52
2019-05-05T02:46:06.761Z,1009.51
2019-05-05T02:47:06.729Z,1009.58
2019-05-05T02:48:06.714Z,1009.54
2019-05-05T02:49:06.705Z,1009.55
2019-05-05T02:50:06.698Z,1009.60
2019-05-05T02:51:07.391Z,1009.61
2019-05-05T02:52:06.689Z,1009.69
2019-05-05T02:53:06.660Z,1009.71
2019-05-05T02:54:06.649Z,1009.73
2019-05-05T02:55:06.645Z,1009.75
2019-05-05T02:56:06.646Z,1009.74
2019-05-05T02:57:06.621Z,1009.78
2019-05-05T02:58:06.603Z,1009.76
2019-05-05T02:59:06.601Z,1009.81
2019-05-05T03:00:06.582Z,1009.82
2019-05-05T03:01:06.597Z,1009.83
2019-05-05T03:02:06.566Z,1009.86
2019-05-05T03:03:06.565Z,1009.88
2019-05-05T03:04:06.543Z,1009.90
2019-05-05T03:05:06.528Z,1009.91
2019-05-05T03:06:06.518Z,1009.90
2019-05-05T03:07:06.526Z,1009.88
2019-05-05T03:08:06.498Z,1009.90
2019-05-05T03:09:06.498Z,1009.88
2019-05-05T03:10:06.474Z,1009.89
2019-05-05T03:11:06.458Z,1009.87
2019-05-05T03:12:06.486Z,1009.93
2019-05-05T03:13:06.438Z,1009.93
2019-05-05T03:14:06.435Z,1009.93
2019-05-05T03:15:06.414Z,1009.91
2019-05-05T03:16:06.416Z,1009.92
2019-05-05T03:17:06.424Z,1009.91
2019-05-05T03:18:06.392Z,1009.95
2019-05-05T03:19:06.372Z,1009.95
2019-05-05T03:20:06.361Z,1009.97
2019-05-05T03:21:07.495Z,1010.00
2019-05-05T03:22:06.357Z,1009.98
2019-05-05T03:23:06.334Z,1010.05
2019-05-05T03:24:06.325Z,1010.03
2019-05-05T03:25:06.322Z,1010.07
2019-05-05T03:26:06.309Z,1010.08
2019-05-05T03:27:06.312Z,1010.10
2019-05-05T03:28:06.272Z,1010.12
2019-05-05T03:29:06.269Z,1010.13
2019-05-05T03:30:06.281Z,1010.09
2019-05-05T03:31:06.266Z,1010.12
2019-05-05T03:32:11.170Z,1010.16
2019-05-05T03:33:07.226Z,1010.15
2019-05-05T03:34:06.567Z,1010.15
2019-05-05T03:35:06.199Z,1010.14
2019-05-05T03:36:06.186Z,1010.17
2019-05-05T03:37:06.222Z,1010.22
2019-05-05T03:38:06.172Z,1010.18
2019-05-05T03:39:06.151Z,1010.21
2019-05-05T03:40:06.150Z,1010.22
2019-05-05T03:41:06.128Z,1010.22
2019-05-05T03:42:06.120Z,1010.23
2019-05-05T03:43:06.127Z,1010.22
2019-05-05T03:44:06.108Z,1010.24
2019-05-05T03:45:06.086Z,1010.26
2019-05-05T03:46:06.076Z,1010.27
2019-05-05T03:47:06.063Z,1010.28
2019-05-05T03:48:06.071Z,1010.34
2019-05-05T03:49:06.051Z,1010.33
2019-05-05T03:50:06.029Z,1010.36
2019-05-05T03:51:18.216Z,1010.36
2019-05-05T03:52:07.247Z,1010.37
2019-05-05T03:53:06.025Z,1010.38
2019-05-05T03:54:05.995Z,1010.43
2019-05-05T03:55:05.979Z,1010.36
2019-05-05T03:56:05.962Z,1010.42
2019-05-05T03:57:05.951Z,1010.41
2019-05-05T03:58:05.961Z,1010.42
2019-05-05T03:59:05.930Z,1010.44
2019-05-05T04:00:05.926Z,1010.44
2019-05-05T04:01:05.916Z,1010.49
2019-05-05T04:02:05.901Z,1010.53
2019-05-05T04:03:05.901Z,1010.49
2019-05-05T04:04:05.876Z,1010.50
2019-05-05T04:05:05.870Z,1010.53
2019-05-05T04:06:05.870Z,1010.50
2019-05-05T04:07:05.838Z,1010.51
2019-05-05T04:08:05.844Z,1010.53
2019-05-05T04:09:05.818Z,1010.53
2019-05-05T04:10:05.807Z,1010.60
2019-05-05T04:11:05.801Z,1010.56
2019-05-05T04:12:05.807Z,1010.58
2019-05-05T04:13:05.803Z,1010.57
2019-05-05T04:14:05.762Z,1010.60
2019-05-05T04:15:05.770Z,1010.59
2019-05-05T04:16:05.744Z,1010.62
2019-05-05T04:17:05.736Z,1010.64
2019-05-05T04:18:05.748Z,1010.60
2019-05-05T04:19:05.708Z,1010.67
2019-05-05T04:20:05.706Z,1010.69
2019-05-05T04:21:05.686Z,1010.72
2019-05-05T04:22:05.687Z,1010.71
2019-05-05T04:23:05.708Z,1010.69
2019-05-05T04:24:05.652Z,1010.74
2019-05-05T04:25:05.648Z,1010.69
2019-05-05T04:26:05.627Z,1010.71
2019-05-05T04:27:05.617Z,1010.72
2019-05-05T04:28:05.638Z,1010.72
2019-05-05T04:29:05.624Z,1010.73
2019-05-05T04:30:05.596Z,1010.71
2019-05-05T04:31:05.604Z,1010.74
2019-05-05T04:32:05.570Z,1010.74
2019-05-05T04:33:05.553Z,1010.77
2019-05-05T04:34:05.566Z,1010.81
2019-05-05T04:35:05.539Z,1010.84
2019-05-05T04:36:05.535Z,1010.82
2019-05-05T04:37:05.518Z,1010.80
2019-05-05T04:38:05.514Z,1010.88
2019-05-05T04:39:05.500Z,1010.88
2019-05-05T04:40:05.480Z,1010.91
2019-05-05T04:41:05.466Z,1010.88
2019-05-05T04:42:05.480Z,1010.92
2019-05-05T04:43:05.439Z,1010.90
2019-05-05T04:44:05.449Z,1010.85
2019-05-05T04:45:05.432Z,1010.87
2019-05-05T04:46:05.408Z,1010.88
2019-05-05T04:47:05.404Z,1010.84
2019-05-05T04:48:05.395Z,1010.89
2019-05-05T04:49:05.400Z,1010.87
2019-05-05T04:50:05.362Z,1010.86
2019-05-05T04:51:05.374Z,1010.85
2019-05-05T04:52:05.357Z,1010.87
2019-05-05T04:53:05.344Z,1010.86
2019-05-05T04:54:05.351Z,1010.84
2019-05-05T04:55:05.318Z,1010.87
2019-05-05T04:56:05.298Z,1010.82
2019-05-05T04:57:05.293Z,1010.87
2019-05-05T04:58:05.281Z,1010.83
2019-05-05T04:59:05.294Z,1010.82
2019-05-05T05:00:05.254Z,1010.82
2019-05-05T05:01:05.244Z,1010.81
2019-05-05T05:02:05.241Z,1010.79
2019-05-05T05:03:05.246Z,1010.87
2019-05-05T05:04:05.221Z,1010.89
2019-05-05T05:05:05.222Z,1010.87
2019-05-05T05:06:05.192Z,1010.84
2019-05-05T05:07:05.179Z,1010.88
2019-05-05T05:08:05.180Z,1010.92
2019-05-05T05:09:05.156Z,1010.86
2019-05-05T05:10:05.190Z,1010.90
2019-05-05T05:11:05.133Z,1010.92
2019-05-05T05:12:05.126Z,1010.94
2019-05-05T05:13:05.113Z,1010.94
2019-05-05T05:14:05.117Z,1010.96
2019-05-05T05:15:05.126Z,1010.92
2019-05-05T05:16:05.106Z,1010.96
2019-05-05T05:17:05.067Z,1010.90
2019-05-05T05:18:05.054Z,1010.91
2019-05-05T05:19:05.046Z,1010.91
2019-05-05T05:20:05.053Z,1010.92
2019-05-05T05:21:05.037Z,1010.87
2019-05-05T05:22:05.132Z,1010.90
2019-05-05T05:23:04.996Z,1010.89
2019-05-05T05:24:04.987Z,1010.88
2019-05-05T05:25:05.019Z,1010.92
2019-05-05T05:26:05.226Z,1010.95
2019-05-05T05:27:05.197Z,1010.93
2019-05-05T05:28:04.955Z,1010.96
2019-05-05T05:29:04.934Z,1010.98
2019-05-05T05:30:04.955Z,1010.95
2019-05-05T05:31:04.921Z,1010.92
2019-05-05T05:32:04.896Z,1010.96
2019-05-05T05:33:04.897Z,1010.94
2019-05-05T05:34:04.874Z,1010.96
2019-05-05T05:35:04.920Z,1011.00
2019-05-05T05:36:04.862Z,1010.99
2019-05-05T05:37:04.862Z,1010.99
2019-05-05T05:38:04.858Z,1011.01
2019-05-05T05:39:04.830Z,1011.04
2019-05-05T05:40:04.853Z,1011.02
2019-05-05T05:41:04.797Z,1011.02
2019-05-05T05:42:04.793Z,1011.08
2019-05-05T05:43:04.911Z,1011.05
2019-05-05T05:44:04.778Z,1011.09
2019-05-05T05:45:04.786Z,1011.10
2019-05-05T05:46:04.745Z,1011.14
2019-05-05T05:47:04.737Z,1011.06
2019-05-05T05:48:04.737Z,1011.13
2019-05-05T05:49:04.715Z,1011.12
2019-05-05T05:50:04.703Z,1011.17
2019-05-05T05:51:04.714Z,1011.19
2019-05-05T05:52:13.367Z,1011.24
2019-05-05T05:53:05.674Z,1011.18
2019-05-05T05:54:04.656Z,1011.18
2019-05-05T05:55:04.641Z,1011.26
2019-05-05T05:56:04.654Z,1011.21
2019-05-05T05:57:04.625Z,1011.23
2019-05-05T05:58:04.980Z,1011.25
2019-05-05T05:59:04.592Z,1011.26
2019-05-05T06:00:04.586Z,1011.26
2019-05-05T06:01:04.610Z,1011.28
2019-05-05T06:02:09.753Z,1011.30
2019-05-05T06:03:05.561Z,1011.30
2019-05-05T06:04:04.546Z,1011.32
2019-05-05T06:05:04.541Z,1011.35
2019-05-05T06:06:04.879Z,1011.36
2019-05-05T06:07:04.520Z,1011.39
2019-05-05T06:08:04.881Z,1011.40
2019-05-05T06:09:04.494Z,1011.41
2019-05-05T06:10:04.480Z,1011.42
2019-05-05T06:11:04.670Z,1011.47
2019-05-05T06:12:04.464Z,1011.49
2019-05-05T06:13:04.466Z,1011.51
2019-05-05T06:14:04.438Z,1011.50
2019-05-05T06:15:04.422Z,1011.43
2019-05-05T06:16:04.529Z,1011.45
2019-05-05T06:17:04.412Z,1011.42
2019-05-05T06:18:04.745Z,1011.43
2019-05-05T06:19:04.378Z,1011.45
2019-05-05T06:20:04.366Z,1011.41
2019-05-05T06:21:04.660Z,1011.49
2019-05-05T06:22:04.341Z,1011.46
2019-05-05T06:23:04.345Z,1011.50
2019-05-05T06:24:04.630Z,1011.51
2019-05-05T06:25:06.475Z,1011.51
2019-05-05T06:26:06.984Z,1011.55
2019-05-05T06:27:04.293Z,1011.49
2019-05-05T06:28:04.460Z,1011.56
2019-05-05T06:29:04.538Z,1011.49
2019-05-05T06:30:04.613Z,1011.58
2019-05-05T06:31:04.862Z,1011.54
2019-05-05T06:32:04.271Z,1011.54
2019-05-05T06:33:04.910Z,1011.56
2019-05-05T06:34:04.216Z,1011.58
2019-05-05T06:35:04.202Z,1011.60
2019-05-05T06:36:04.190Z,1011.61
2019-05-05T06:37:04.434Z,1011.65
2019-05-05T06:38:04.689Z,1011.67
2019-05-05T06:39:04.566Z,1011.67
2019-05-05T06:40:04.152Z,1011.67
2019-05-05T06:41:04.310Z,1011.70
2019-05-05T06:42:04.575Z,1011.72
2019-05-05T06:43:04.504Z,1011.72
2019-05-05T06:44:04.894Z,1011.67
2019-05-05T06:45:04.269Z,1011.70
2019-05-05T06:46:04.164Z,1011.72
2019-05-05T06:47:04.905Z,1011.76
2019-05-05T06:48:04.403Z,1011.78
2019-05-05T06:49:04.405Z,1011.77
2019-05-05T06:50:04.033Z,1011.80
2019-05-05T06:51:04.128Z,1011.79
2019-05-05T06:52:04.308Z,1011.75
2019-05-05T06:53:04.384Z,1011.83
2019-05-05T06:54:04.621Z,1011.79
2019-05-05T06:55:03.975Z,1011.80
2019-05-05T06:56:04.198Z,1011.81
2019-05-05T06:57:04.590Z,1011.83
2019-05-05T06:58:04.604Z,1011.81
2019-05-05T06:59:04.432Z,1011.83
2019-05-05T07:00:03.925Z,1011.87
2019-05-05T07:01:03.910Z,1011.84
2019-05-05T07:02:04.372Z,1011.86
2019-05-05T07:03:07.696Z,1011.86
2019-05-05T07:04:03.873Z,1011.80
2019-05-05T07:05:04.160Z,1011.83
2019-05-05T07:06:04.468Z,1011.86
2019-05-05T07:07:05.164Z,1011.82
2019-05-05T07:08:04.527Z,1011.83
2019-05-05T07:09:05.469Z,1011.83
2019-05-05T07:10:03.899Z,1011.87
2019-05-05T07:11:04.163Z,1011.86
2019-05-05T07:12:04.521Z,1011.87
2019-05-05T07:13:04.972Z,1011.89
2019-05-05T07:14:03.848Z,1011.85
2019-05-05T07:15:04.332Z,1011.90
2019-05-05T07:16:04.772Z,1011.84
2019-05-05T07:17:05.104Z,1011.88
2019-05-05T07:18:03.861Z,1011.88
2019-05-05T07:19:04.452Z,1011.88
2019-05-05T07:20:04.366Z,1011.81
2019-05-05T07:21:03.904Z,1011.81
2019-05-05T07:22:04.211Z,1011.84
2019-05-05T07:23:05.408Z,1011.82
2019-05-05T07:24:04.034Z,1011.82
2019-05-05T07:25:04.698Z,1011.80
2019-05-05T07:26:04.259Z,1011.85
2019-05-05T07:27:04.760Z,1011.83
2019-05-05T07:28:04.235Z,1011.84
2019-05-05T07:29:04.534Z,1011.82
2019-05-05T07:30:04.757Z,1011.84
2019-05-05T07:31:04.382Z,1011.83
2019-05-05T07:32:04.077Z,1011.85
2019-05-05T07:33:04.591Z,1011.85
2019-05-05T07:34:04.691Z,1011.83
2019-05-05T07:35:04.170Z,1011.84
2019-05-05T07:36:06.023Z,1011.78
2019-05-05T07:37:03.907Z,1011.79
2019-05-05T07:38:04.526Z,1011.79
2019-05-05T07:39:03.888Z,1011.82
2019-05-05T07:40:04.192Z,1011.86
2019-05-05T07:41:03.733Z,1011.83
2019-05-05T07:42:04.519Z,1011.84
2019-05-05T07:43:04.484Z,1011.83
2019-05-05T07:44:04.771Z,1011.89
2019-05-05T07:45:05.468Z,1011.87
2019-05-05T07:46:04.573Z,1011.92
2019-05-05T07:47:03.699Z,1011.91
2019-05-05T07:48:04.796Z,1011.92
2019-05-05T07:49:03.988Z,1011.93
2019-05-05T07:50:04.123Z,1011.88
2019-05-05T07:51:05.222Z,1011.83
2019-05-05T07:52:04.079Z,1011.88
2019-05-05T07:53:13.871Z,1011.91
2019-05-05T07:54:04.334Z,1011.87
2019-05-05T07:55:03.737Z,1011.90
2019-05-05T07:56:03.993Z,1011.93
2019-05-05T07:57:04.189Z,1011.94
2019-05-05T07:58:04.319Z,1011.95
2019-05-05T07:59:03.941Z,1011.97
2019-05-05T08:00:05.275Z,1011.99
2019-05-05T08:01:04.628Z,1011.94
2019-05-05T08:02:03.986Z,1011.97
2019-05-05T08:03:03.789Z,1011.97
2019-05-05T08:04:04.503Z,1012.00
2019-05-05T08:05:04.683Z,1011.94
2019-05-05T08:06:03.970Z,1011.98
2019-05-05T08:07:04.108Z,1011.95
2019-05-05T08:08:04.616Z,1011.98
2019-05-05T08:09:04.111Z,1012.00
2019-05-05T08:10:04.562Z,1011.99
2019-05-05T08:11:04.816Z,1011.98
2019-05-05T08:12:04.321Z,1011.95
2019-05-05T08:13:04.642Z,1011.98
2019-05-05T08:14:04.180Z,1011.98
2019-05-05T08:15:04.278Z,1011.98
2019-05-05T08:16:03.849Z,1011.96
2019-05-05T08:17:04.146Z,1011.95
2019-05-05T08:18:04.554Z,1011.93
2019-05-05T08:19:03.876Z,1011.94
2019-05-05T08:20:03.959Z,1011.98
2019-05-05T08:21:04.289Z,1012.01
2019-05-05T08:22:03.691Z,1012.05
2019-05-05T08:23:04.312Z,1012.07
2019-05-05T08:24:04.634Z,1012.08
2019-05-05T08:25:04.051Z,1012.16
2019-05-05T08:26:04.557Z,1012.18
2019-05-05T08:27:04.532Z,1012.10
2019-05-05T08:28:04.307Z,1012.09
2019-05-05T08:29:04.664Z,1012.11
2019-05-05T08:30:05.132Z,1012.11
2019-05-05T08:31:03.924Z,1012.07
2019-05-05T08:32:04.368Z,1012.13
2019-05-05T08:33:04.656Z,1012.08
2019-05-05T08:34:03.823Z,1012.11
2019-05-05T08:35:04.347Z,1012.10
2019-05-05T08:36:04.592Z,1012.06
2019-05-05T08:37:04.334Z,1012.06
2019-05-05T08:38:04.558Z,1012.09
2019-05-05T08:39:03.760Z,1012.10
2019-05-05T08:40:04.339Z,1012.03
2019-05-05T08:41:04.579Z,1012.10
2019-05-05T08:42:04.287Z,1012.15
2019-05-05T08:43:04.525Z,1012.17
2019-05-05T08:44:03.661Z,1012.11
2019-05-05T08:45:04.629Z,1012.15
2019-05-05T08:46:04.721Z,1012.15
2019-05-05T08:47:04.505Z,1012.19
2019-05-05T08:48:04.799Z,1012.21
2019-05-05T08:49:04.375Z,1012.25
2019-05-05T08:50:04.142Z,1012.25
2019-05-05T08:51:04.732Z,1012.19
2019-05-05T08:52:04.024Z,1012.20
2019-05-05T08:53:04.467Z,1012.20
2019-05-05T08:54:03.927Z,1012.23
2019-05-05T08:55:04.603Z,1012.22
2019-05-05T08:56:04.095Z,1012.28
2019-05-05T08:57:04.185Z,1012.22
2019-05-05T08:58:04.573Z,1012.28
2019-05-05T08:59:03.680Z,1012.29
2019-05-05T09:00:04.706Z,1012.30
2019-05-05T09:01:04.345Z,1012.32
2019-05-05T09:02:04.518Z,1012.29
2019-05-05T09:03:03.842Z,1012.27
2019-05-05T09:04:04.140Z,1012.24
2019-05-05T09:05:04.225Z,1012.21
2019-05-05T09:06:04.552Z,1012.27
2019-05-05T09:07:04.819Z,1012.23
2019-05-05T09:08:04.511Z,1012.29
2019-05-05T09:09:03.847Z,1012.31
2019-05-05T09:10:03.896Z,1012.21
2019-05-05T09:11:04.517Z,1012.26
2019-05-05T09:12:04.475Z,1012.20
2019-05-05T09:13:03.755Z,1012.27
2019-05-05T09:14:04.150Z,1012.29
2019-05-05T09:15:04.405Z,1012.28
2019-05-05T09:16:03.733Z,1012.25
2019-05-05T09:17:04.461Z,1012.27
2019-05-05T09:18:04.838Z,1012.25
2019-05-05T09:19:04.195Z,1012.21
2019-05-05T09:20:04.368Z,1012.22
2019-05-05T09:21:04.301Z,1012.23
2019-05-05T09:22:04.861Z,1012.26
2019-05-05T09:23:04.181Z,1012.31
2019-05-05T09:24:05.242Z,1012.32
2019-05-05T09:25:04.249Z,1012.30
2019-05-05T09:26:04.345Z,1012.33
2019-05-05T09:27:03.658Z,1012.33
2019-05-05T09:28:03.915Z,1012.33
2019-05-05T09:29:04.302Z,1012.30
2019-05-05T09:30:03.883Z,1012.33
2019-05-05T09:31:04.155Z,1012.36
2019-05-05T09:32:04.016Z,1012.34
2019-05-05T09:33:03.571Z,1012.32
2019-05-05T09:34:04.046Z,1012.36
2019-05-05T09:35:04.583Z,1012.32
2019-05-05T09:36:04.495Z,1012.33
2019-05-05T09:37:03.647Z,1012.37
2019-05-05T09:39:19.094Z,1012.30
2019-05-05T09:40:19.049Z,1012.33
2019-05-05T09:41:19.046Z,1012.31
2019-05-05T09:42:19.643Z,1012.33
2019-05-05T09:43:18.990Z,1012.33
2019-05-05T09:44:19.004Z,1012.29
2019-05-05T09:45:27.111Z,1012.30
2019-05-05T09:46:19.053Z,1012.34
2019-05-05T09:47:19.001Z,1012.34
2019-05-05T09:48:18.940Z,1012.29
2019-05-05T09:49:18.922Z,1012.34
2019-05-05T09:50:18.948Z,1012.33
2019-05-05T09:51:18.947Z,1012.35
2019-05-05T09:52:18.979Z,1012.37
2019-05-05T09:53:18.965Z,1012.32
2019-05-05T09:54:18.911Z,1012.34
2019-05-05T09:55:18.888Z,1012.34
2019-05-05T09:56:18.893Z,1012.34
2019-05-05T09:57:18.834Z,1012.35
2019-05-05T09:58:18.951Z,1012.35
2019-05-05T09:59:18.830Z,1012.34
2019-05-05T10:00:18.872Z,1012.32
2019-05-05T10:01:18.836Z,1012.38
2019-05-05T10:02:18.826Z,1012.37
2019-05-05T10:03:18.853Z,1012.30
2019-05-05T10:04:18.819Z,1012.36
2019-05-05T10:05:18.756Z,1012.36
2019-05-05T10:06:18.745Z,1012.40
2019-05-05T10:07:18.777Z,1012.38
2019-05-05T10:08:18.961Z,1012.37
2019-05-05T10:09:18.714Z,1012.35
2019-05-05T10:10:18.754Z,1012.40
2019-05-05T10:11:18.690Z,1012.44
2019-05-05T10:12:18.702Z,1012.41
2019-05-05T10:13:18.784Z,1012.39
2019-05-05T10:14:18.682Z,1012.47
2019-05-05T10:15:18.787Z,1012.43
2019-05-05T10:16:18.721Z,1012.40
2019-05-05T10:18:19.672Z,1012.45
2019-05-05T10:19:18.589Z,1012.46
2019-05-05T10:20:18.627Z,1012.46
2019-05-05T10:21:18.564Z,1012.60
2019-05-05T10:22:18.558Z,1012.74
2019-05-05T10:23:18.562Z,1012.68
2019-05-05T10:24:27.867Z,1012.70
2019-05-05T10:26:19.680Z,1012.63
2019-05-05T10:27:18.702Z,1012.70
2019-05-05T10:28:18.669Z,1012.65
2019-05-05T10:29:18.766Z,1012.72
2019-05-05T10:30:18.639Z,1012.34
2019-05-05T10:31:18.631Z,1012.38
2019-05-05T10:32:18.453Z,1012.40
2019-05-05T10:33:18.442Z,1012.34
2019-05-05T10:34:18.458Z,1012.39
2019-05-05T10:35:18.432Z,1012.47
2019-05-05T10:36:18.390Z,1012.42
2019-05-05T10:37:18.397Z,1012.32
2019-05-05T10:38:18.375Z,1012.36
2019-05-05T10:39:18.446Z,1012.34
2019-05-05T10:40:18.360Z,1012.40
2019-05-05T10:41:18.388Z,1012.47
2019-05-05T10:42:18.543Z,1012.85
2019-05-05T10:43:18.384Z,1012.40
2019-05-05T10:44:18.548Z,1012.45
2019-05-05T10:45:18.611Z,1012.39
2019-05-05T10:46:18.295Z,1012.42
2019-05-05T10:47:18.318Z,1012.42
2019-05-05T10:48:18.262Z,1012.43
2019-05-05T10:49:18.270Z,1012.45
2019-05-05T10:50:18.231Z,1012.42
2019-05-05T10:51:18.231Z,1012.92
2019-05-05T10:52:18.224Z,1012.92
2019-05-05T10:53:18.196Z,1012.88
2019-05-05T10:54:18.247Z,1012.86
2019-05-05T10:55:18.183Z,1012.91
2019-05-05T10:56:18.180Z,1012.89
2019-05-05T10:57:18.570Z,1012.32
2019-05-05T10:58:18.179Z,1012.32
2019-05-05T10:59:18.176Z,1012.38
2019-05-05T11:00:18.291Z,1012.39
2019-05-05T11:01:18.184Z,1012.58
2019-05-05T11:02:18.106Z,1012.34
2019-05-05T11:03:18.274Z,1012.21
2019-05-05T11:04:18.108Z,1012.23
2019-05-05T11:05:18.173Z,1012.38
2019-05-05T11:06:18.070Z,1012.32
2019-05-05T11:07:18.052Z,1012.27
2019-05-05T11:08:18.147Z,1012.23
2019-05-05T11:09:18.055Z,1012.23
2019-05-05T11:10:18.050Z,1012.24
2019-05-05T11:11:18.010Z,1012.27
2019-05-05T11:12:18.042Z,1012.31
2019-05-05T11:13:17.995Z,1012.28
2019-05-05T11:14:18.020Z,1012.31
2019-05-05T11:15:17.994Z,1012.35
2019-05-05T11:16:17.952Z,1012.36
2019-05-05T11:17:17.944Z,1012.35
2019-05-05T11:18:17.949Z,1012.37
2019-05-05T11:19:17.920Z,1012.46
2019-05-05T11:20:17.924Z,1012.45
2019-05-05T11:21:17.916Z,1012.42
2019-05-05T11:22:17.937Z,1012.44
2019-05-05T11:23:17.892Z,1012.40
2019-05-05T11:24:17.888Z,1012.38
2019-05-05T11:25:17.905Z,1012.39
2019-05-05T11:26:17.926Z,1012.44
2019-05-05T11:27:17.837Z,1012.46
2019-05-05T11:28:17.869Z,1012.93
2019-05-05T11:29:17.821Z,1012.88
2019-05-05T11:30:17.840Z,1012.93
2019-05-05T11:31:17.828Z,1012.89
2019-05-05T11:32:17.810Z,1012.85
2019-05-05T11:33:17.845Z,1012.88
2019-05-05T11:34:17.762Z,1012.79
2019-05-05T11:35:17.760Z,1012.82
2019-05-05T11:36:17.770Z,1012.82
2019-05-05T11:37:17.736Z,1012.80
2019-05-05T11:38:17.741Z,1012.78
2019-05-05T11:39:17.712Z,1012.76
2019-05-05T11:40:17.695Z,1012.70
2019-05-05T11:41:17.710Z,1012.76
2019-05-05T11:42:17.669Z,1012.73
2019-05-05T11:43:17.672Z,1012.73
2019-05-05T11:44:17.671Z,1012.70
2019-05-05T11:45:17.652Z,1012.70
2019-05-05T11:46:17.698Z,1012.66
2019-05-05T11:47:17.643Z,1012.72
2019-05-05T11:48:17.637Z,1012.70
2019-05-05T11:49:17.615Z,1012.75
2019-05-05T11:50:17.603Z,1012.76
2019-05-05T11:51:17.628Z,1012.34
2019-05-05T11:52:17.596Z,1012.27
2019-05-05T11:53:17.585Z,1012.36
2019-05-05T11:54:17.553Z,1012.50
2019-05-05T11:55:17.554Z,1012.54
2019-05-05T11:56:17.635Z,1012.58
2019-05-05T11:57:17.538Z,1012.59
2019-05-05T11:58:17.521Z,1012.52
2019-05-05T11:59:17.518Z,1012.57
2019-05-05T12:00:17.500Z,1012.62
2019-05-05T12:01:17.510Z,1012.67
2019-05-05T12:02:17.483Z,1012.61
2019-05-05T12:03:17.516Z,1012.64
2019-05-05T12:04:17.546Z,1012.66
2019-05-05T12:05:17.467Z,1012.62
2019-05-05T12:06:17.474Z,1012.61
2019-05-05T12:07:17.446Z,1012.63
2019-05-05T12:08:17.432Z,1012.68